createdAt,value
2023-03-28T00:00:58.746Z,27.16
2023-03-28T00:01:58.716Z,27.10
2023-03-28T00:02:58.752Z,27.12
2023-03-28T00:03:58.764Z,27.13
2023-03-28T00:04:58.718Z,27.10
2023-03-28T00:05:58.986Z,27.15
2023-03-28T00:06:58.724Z,27.12
2023-03-28T00:07:58.716Z,27.09
2023-03-28T00:08:58.712Z,27.12
2023-03-28T00:09:58.699Z,27.07
2023-03-28T00:10:58.743Z,27.09
2023-03-28T00:11:58.705Z,27.12
2023-03-28T00:12:58.705Z,27.13
2023-03-28T00:13:58.705Z,27.07
2023-03-28T00:14:58.692Z,27.06
2023-03-28T00:15:58.833Z,27.06
2023-03-28T00:16:58.690Z,27.06
2023-03-28T00:17:58.710Z,27.09
2023-03-28T00:18:58.689Z,27.13
2023-03-28T00:19:58.705Z,27.03
2023-03-28T00:20:58.697Z,27.07
2023-03-28T00:21:58.721Z,27.09
2023-03-28T00:22:58.724Z,27.07
2023-03-28T00:23:58.748Z,27.07
2023-03-28T00:24:58.767Z,27.10
2023-03-28T00:25:58.935Z,27.06
2023-03-28T00:26:58.734Z,27.00
2023-03-28T00:27:58.800Z,27.07
2023-03-28T00:28:58.762Z,27.05
2023-03-28T00:29:58.763Z,27.02
2023-03-28T00:30:58.790Z,27.00
2023-03-28T00:31:58.765Z,27.00
2023-03-28T00:32:58.804Z,26.98
2023-03-28T00:33:58.776Z,26.99
2023-03-28T00:34:58.790Z,27.00
2023-03-28T00:35:59.001Z,27.05
2023-03-28T00:36:58.802Z,27.02
2023-03-28T00:37:58.828Z,26.96
2023-03-28T00:38:58.834Z,26.97
2023-03-28T00:39:58.826Z,27.02
2023-03-28T00:40:58.830Z,27.00
2023-03-28T00:41:58.830Z,27.00
2023-03-28T00:42:58.844Z,26.95
2023-03-28T00:43:58.828Z,26.96
2023-03-28T00:44:58.804Z,27.00
2023-03-28T00:46:08.560Z,26.97
2023-03-28T00:46:59.857Z,27.00
2023-03-28T00:47:58.828Z,26.96
2023-03-28T00:48:58.752Z,26.99
2023-03-28T00:49:58.732Z,26.93
2023-03-28T00:50:58.714Z,26.93
2023-03-28T00:51:58.693Z,26.96
2023-03-28T00:52:58.688Z,26.93
2023-03-28T00:53:58.661Z,26.92
2023-03-28T00:54:58.645Z,26.98
2023-03-28T00:55:58.868Z,26.90
2023-03-28T00:56:58.625Z,26.90
2023-03-28T00:57:58.597Z,26.93
2023-03-28T00:58:58.571Z,26.96
2023-03-28T00:59:58.616Z,26.92
2023-03-28T01:00:58.520Z,26.89
2023-03-28T01:01:58.506Z,26.90
2023-03-28T01:02:58.601Z,26.93
2023-03-28T01:03:58.453Z,26.86
2023-03-28T01:04:58.422Z,26.85
2023-03-28T01:05:58.764Z,26.88
2023-03-28T01:06:58.382Z,26.89
2023-03-28T01:07:58.364Z,26.89
2023-03-28T01:08:58.343Z,26.85
2023-03-28T01:09:58.310Z,26.88
2023-03-28T01:10:58.300Z,26.89
2023-03-28T01:11:58.273Z,26.83
2023-03-28T01:12:58.267Z,26.85
2023-03-28T01:13:58.324Z,26.88
2023-03-28T01:14:58.305Z,26.87
2023-03-28T01:15:58.613Z,26.86
2023-03-28T01:16:58.202Z,26.89
2023-03-28T01:17:58.203Z,26.82
2023-03-28T01:18:58.172Z,26.89
2023-03-28T01:19:58.157Z,26.86
2023-03-28T01:20:58.144Z,26.85
2023-03-28T01:21:58.131Z,26.89
2023-03-28T01:22:58.855Z,26.80
2023-03-28T01:24:11.157Z,26.82
2023-03-28T01:24:59.096Z,26.84
2023-03-28T01:25:58.433Z,26.83
2023-03-28T01:26:58.070Z,26.82
2023-03-28T01:27:58.026Z,26.79
2023-03-28T01:28:58.117Z,26.82
2023-03-28T01:29:58.059Z,26.79
2023-03-28T01:30:58.851Z,26.80
2023-03-28T01:31:58.047Z,26.78
2023-03-28T01:32:57.933Z,26.79
2023-03-28T01:33:57.906Z,26.80
2023-03-28T01:34:58.907Z,26.84
2023-03-28T01:35:58.073Z,26.82
2023-03-28T01:36:57.864Z,26.80
2023-03-28T01:37:57.833Z,26.79
2023-03-28T01:38:57.805Z,26.78
2023-03-28T01:39:57.854Z,26.72
2023-03-28T01:40:57.768Z,26.77
2023-03-28T01:41:57.787Z,26.80
2023-03-28T01:42:57.739Z,26.79
2023-03-28T01:43:57.742Z,26.82
2023-03-28T01:44:57.708Z,26.76
2023-03-28T01:45:57.872Z,26.72
2023-03-28T01:46:57.689Z,26.76
2023-03-28T01:47:57.712Z,26.75
2023-03-28T01:48:57.698Z,26.73
2023-03-28T01:49:57.688Z,26.78
2023-03-28T01:50:57.687Z,26.79
2023-03-28T01:51:57.687Z,26.72
2023-03-28T01:52:57.676Z,26.73
2023-03-28T01:53:57.707Z,26.77
2023-03-28T01:54:57.722Z,26.71
2023-03-28T01:55:57.853Z,26.73
2023-03-28T01:56:57.685Z,26.71
2023-03-28T01:57:57.655Z,26.69
2023-03-28T01:58:57.654Z,26.69
2023-03-28T01:59:57.654Z,26.72
2023-03-28T02:00:57.673Z,26.72
2023-03-28T02:01:57.737Z,26.71
2023-03-28T02:02:57.741Z,26.73
2023-03-28T02:03:57.667Z,26.71
2023-03-28T02:04:57.649Z,26.72
2023-03-28T02:05:57.864Z,26.69
2023-03-28T02:06:57.650Z,26.68
2023-03-28T02:07:57.645Z,26.72
2023-03-28T02:08:57.646Z,26.66
2023-03-28T02:09:57.645Z,26.72
2023-03-28T02:10:57.724Z,26.72
2023-03-28T02:11:57.677Z,26.68
2023-03-28T02:12:57.667Z,26.71
2023-03-28T02:13:57.674Z,26.71
2023-03-28T02:14:57.671Z,26.69
2023-03-28T02:15:57.956Z,26.68
2023-03-28T02:16:57.775Z,26.69
2023-03-28T02:17:57.709Z,26.66
2023-03-28T02:18:57.670Z,26.68
2023-03-28T02:19:57.681Z,26.65
2023-03-28T02:20:57.665Z,26.66
2023-03-28T02:21:57.665Z,26.62
2023-03-28T02:22:57.651Z,26.62
2023-03-28T02:23:57.654Z,26.66
2023-03-28T02:24:57.650Z,26.65
2023-03-28T02:25:57.876Z,26.61
2023-03-28T02:26:57.661Z,26.66
2023-03-28T02:27:57.658Z,26.62
2023-03-28T02:28:57.659Z,26.66
2023-03-28T02:29:57.883Z,26.66
2023-03-28T02:30:57.657Z,26.65
2023-03-28T02:31:57.657Z,26.65
2023-03-28T02:32:57.667Z,26.62
2023-03-28T02:33:57.731Z,26.62
2023-03-28T02:34:57.658Z,26.55
2023-03-28T02:35:57.832Z,26.65
2023-03-28T02:36:57.650Z,26.58
2023-03-28T02:37:57.644Z,26.58
2023-03-28T02:38:57.645Z,26.61
2023-03-28T02:39:57.680Z,26.61
2023-03-28T02:40:57.643Z,26.58
2023-03-28T02:41:57.646Z,26.61
2023-03-28T02:42:57.636Z,26.58
2023-03-28T02:43:57.645Z,26.56
2023-03-28T02:44:57.648Z,26.58
2023-03-28T02:45:57.772Z,26.62
2023-03-28T02:46:59.469Z,26.61
2023-03-28T02:47:57.638Z,26.56
2023-03-28T02:48:57.582Z,26.56
2023-03-28T02:49:57.560Z,26.56
2023-03-28T02:50:57.564Z,26.53
2023-03-28T02:51:57.532Z,26.52
2023-03-28T02:52:57.506Z,26.56
2023-03-28T02:53:57.510Z,26.55
2023-03-28T02:54:57.489Z,26.51
2023-03-28T02:55:57.587Z,26.55
2023-03-28T02:56:57.480Z,26.58
2023-03-28T02:57:57.456Z,26.57
2023-03-28T02:58:57.432Z,26.58
2023-03-28T02:59:57.413Z,26.59
2023-03-28T03:00:57.450Z,26.48
2023-03-28T03:01:57.455Z,26.48
2023-03-28T03:02:57.915Z,26.40
2023-03-28T03:03:58.177Z,26.43
2023-03-28T03:04:57.354Z,26.39
2023-03-28T03:05:57.412Z,26.40
2023-03-28T03:06:57.341Z,26.41
2023-03-28T03:07:57.318Z,26.41
2023-03-28T03:08:57.335Z,26.39
2023-03-28T03:09:57.296Z,26.41
2023-03-28T03:10:57.293Z,26.40
2023-03-28T03:11:57.272Z,26.41
2023-03-28T03:12:57.251Z,26.40
2023-03-28T03:13:57.248Z,26.41
2023-03-28T03:14:57.217Z,26.34
2023-03-28T03:15:57.322Z,26.39
2023-03-28T03:16:57.194Z,26.43
2023-03-28T03:17:57.232Z,26.40
2023-03-28T03:18:57.160Z,26.43
2023-03-28T03:19:57.149Z,26.40
2023-03-28T03:20:57.130Z,26.40
2023-03-28T03:21:57.103Z,26.34
2023-03-28T03:22:57.094Z,26.40
2023-03-28T03:23:57.080Z,26.38
2023-03-28T03:24:57.059Z,26.37
2023-03-28T03:25:57.077Z,26.37
2023-03-28T03:26:57.026Z,26.39
2023-03-28T03:27:56.997Z,26.39
2023-03-28T03:28:57.047Z,26.34
2023-03-28T03:29:56.969Z,26.36
2023-03-28T03:30:56.932Z,26.36
2023-03-28T03:31:56.916Z,26.37
2023-03-28T03:32:56.950Z,26.36
2023-03-28T03:33:56.887Z,26.31
2023-03-28T03:34:56.883Z,26.33
2023-03-28T03:35:57.447Z,26.33
2023-03-28T03:36:56.869Z,26.33
2023-03-28T03:37:56.817Z,26.34
2023-03-28T03:38:56.791Z,26.37
2023-03-28T03:39:56.799Z,26.36
2023-03-28T03:40:56.778Z,26.31
2023-03-28T03:41:56.757Z,26.31
2023-03-28T03:42:56.746Z,26.37
2023-03-28T03:43:56.716Z,26.31
2023-03-28T03:44:56.690Z,26.36
2023-03-28T03:45:56.721Z,26.32
2023-03-28T03:46:56.652Z,26.30
2023-03-28T03:47:56.662Z,26.32
2023-03-28T03:48:56.612Z,26.34
2023-03-28T03:49:56.592Z,26.28
2023-03-28T03:50:56.571Z,26.28
2023-03-28T03:51:56.545Z,26.32
2023-03-28T03:52:56.519Z,26.30
2023-03-28T03:53:56.538Z,26.33
2023-03-28T03:54:56.572Z,26.29
2023-03-28T03:55:56.582Z,26.32
2023-03-28T03:56:56.699Z,26.29
2023-03-28T03:57:56.667Z,26.29
2023-03-28T03:58:56.696Z,26.28
2023-03-28T03:59:56.739Z,26.32
2023-03-28T04:00:56.781Z,26.26
2023-03-28T04:01:56.849Z,26.29
2023-03-28T04:02:56.885Z,26.26
2023-03-28T04:03:56.957Z,26.22
2023-03-28T04:04:56.882Z,26.30
2023-03-28T04:05:56.988Z,26.26
2023-03-28T04:06:56.894Z,26.24
2023-03-28T04:07:56.919Z,26.28
2023-03-28T04:08:56.923Z,26.24
2023-03-28T04:09:56.954Z,26.25
2023-03-28T04:10:56.938Z,26.18
2023-03-28T04:11:56.971Z,26.22
2023-03-28T04:12:56.971Z,26.22
2023-03-28T04:13:56.974Z,26.24
2023-03-28T04:14:56.966Z,26.18
2023-03-28T04:15:57.137Z,26.19
2023-03-28T04:16:56.958Z,26.24
2023-03-28T04:17:57.070Z,26.22
2023-03-28T04:18:56.939Z,26.22
2023-03-28T04:19:56.930Z,26.18
2023-03-28T04:20:56.918Z,26.22
2023-03-28T04:21:56.930Z,26.21
2023-03-28T04:22:56.867Z,26.21
2023-03-28T04:23:56.855Z,26.22
2023-03-28T04:24:56.846Z,26.18
2023-03-28T04:25:56.839Z,26.21
2023-03-28T04:26:56.844Z,26.15
2023-03-28T04:27:56.814Z,26.22
2023-03-28T04:28:56.794Z,26.18
2023-03-28T04:29:56.810Z,26.15
2023-03-28T04:30:56.818Z,26.13
2023-03-28T04:31:56.829Z,26.11
2023-03-28T04:32:56.822Z,26.13
2023-03-28T04:33:56.756Z,26.11
2023-03-28T04:34:56.754Z,26.14
2023-03-28T04:35:56.770Z,26.08
2023-03-28T04:36:56.731Z,26.07
2023-03-28T04:37:56.722Z,26.07
2023-03-28T04:38:56.714Z,26.06
2023-03-28T04:39:56.767Z,26.06
2023-03-28T04:40:56.688Z,26.08
2023-03-28T04:41:56.682Z,26.07
2023-03-28T04:42:56.659Z,26.04
2023-03-28T04:43:56.642Z,26.02
2023-03-28T04:44:56.638Z,26.03
2023-03-28T04:45:56.687Z,26.04
2023-03-28T04:46:56.599Z,26.06
2023-03-28T04:47:56.653Z,26.08
2023-03-28T04:48:57.193Z,26.03
2023-03-28T04:49:56.573Z,26.02
2023-03-28T04:50:56.553Z,26.12
2023-03-28T04:51:56.551Z,26.04
2023-03-28T04:52:56.531Z,26.00
2023-03-28T04:53:56.527Z,26.06
2023-03-28T04:54:56.504Z,26.03
2023-03-28T04:55:56.496Z,26.00
2023-03-28T04:56:56.542Z,26.06
2023-03-28T04:57:56.481Z,26.04
2023-03-28T04:58:56.462Z,26.01
2023-03-28T04:59:56.450Z,26.06
2023-03-28T05:00:56.462Z,26.01
2023-03-28T05:01:56.499Z,26.09
2023-03-28T05:02:56.523Z,26.02
2023-03-28T05:03:56.424Z,26.03
2023-03-28T05:04:56.938Z,25.97
2023-03-28T05:05:56.405Z,25.99
2023-03-28T05:06:56.394Z,26.00
2023-03-28T05:07:56.389Z,25.99
2023-03-28T05:08:56.379Z,26.03
2023-03-28T05:09:56.438Z,26.03
2023-03-28T05:10:56.374Z,26.01
2023-03-28T05:11:56.376Z,26.01
2023-03-28T05:12:56.374Z,26.04
2023-03-28T05:13:56.363Z,26.01
2023-03-28T05:14:56.357Z,26.03
2023-03-28T05:15:56.385Z,26.04
2023-03-28T05:16:56.351Z,26.11
2023-03-28T05:17:56.414Z,26.00
2023-03-28T05:18:56.328Z,26.06
2023-03-28T05:19:56.318Z,26.03
2023-03-28T05:20:56.303Z,26.03
2023-03-28T05:21:56.290Z,26.29
2023-03-28T05:22:56.273Z,26.52
2023-03-28T05:23:56.267Z,26.41
2023-03-28T05:24:56.240Z,26.32
2023-03-28T05:25:56.223Z,26.64
2023-03-28T05:26:56.223Z,26.74
2023-03-28T05:27:56.195Z,27.12
2023-03-28T05:28:56.172Z,26.96
2023-03-28T05:29:56.181Z,27.26
2023-03-28T05:30:56.155Z,27.14
2023-03-28T05:31:56.199Z,27.10
2023-03-28T05:32:56.156Z,27.13
2023-03-28T05:33:56.106Z,27.10
2023-03-28T05:34:56.091Z,27.13
2023-03-28T05:35:56.130Z,27.10
2023-03-28T05:36:56.049Z,27.09
2023-03-28T05:37:56.040Z,27.11
2023-03-28T05:38:56.013Z,27.08
2023-03-28T05:39:56.013Z,27.08
2023-03-28T05:40:55.991Z,27.04
2023-03-28T05:41:55.962Z,27.06
2023-03-28T05:42:55.939Z,27.04
2023-03-28T05:43:55.927Z,27.03
2023-03-28T05:44:55.902Z,27.04
2023-03-28T05:45:55.910Z,26.97
2023-03-28T05:46:55.864Z,26.94
2023-03-28T05:47:55.854Z,27.00
2023-03-28T05:48:55.828Z,26.94
2023-03-28T05:49:55.821Z,26.91
2023-03-28T05:50:55.792Z,26.94
2023-03-28T05:51:55.770Z,26.91
2023-03-28T05:52:55.798Z,26.88
2023-03-28T05:53:55.729Z,26.87
2023-03-28T05:54:55.718Z,26.88
2023-03-28T05:55:55.697Z,26.88
2023-03-28T05:56:55.769Z,26.83
2023-03-28T05:57:55.703Z,26.83
2023-03-28T05:58:55.664Z,26.83
2023-03-28T05:59:55.635Z,26.80
2023-03-28T06:00:55.693Z,26.81
2023-03-28T06:01:55.614Z,26.79
2023-03-28T06:02:55.599Z,26.80
2023-03-28T06:03:55.622Z,26.81
2023-03-28T06:04:55.593Z,26.77
2023-03-28T06:05:55.549Z,26.80
2023-03-28T06:06:55.524Z,26.80
2023-03-28T06:07:55.511Z,26.77
2023-03-28T06:08:55.497Z,26.77
2023-03-28T06:09:55.481Z,26.74
2023-03-28T06:10:55.474Z,26.76
2023-03-28T06:11:55.449Z,26.75
2023-03-28T06:12:55.417Z,26.75
2023-03-28T06:13:55.402Z,26.69
2023-03-28T06:14:55.381Z,26.76
2023-03-28T06:15:55.372Z,26.69
2023-03-28T06:16:55.465Z,26.63
2023-03-28T06:17:55.411Z,26.70
2023-03-28T06:19:04.005Z,26.65
2023-03-28T06:19:56.325Z,26.65
2023-03-28T06:20:55.273Z,26.65
2023-03-28T06:21:55.248Z,26.63
2023-03-28T06:22:55.237Z,26.65
2023-03-28T06:23:55.211Z,26.62
2023-03-28T06:24:55.200Z,26.58
2023-03-28T06:25:55.178Z,26.52
2023-03-28T06:26:55.174Z,26.56
2023-03-28T06:27:55.154Z,26.55
2023-03-28T06:28:55.137Z,26.57
2023-03-28T06:29:55.960Z,26.53
2023-03-28T06:30:55.133Z,26.56
2023-03-28T06:31:55.179Z,26.55
2023-03-28T06:32:55.150Z,26.56
2023-03-28T06:33:55.123Z,26.57
2023-03-28T06:34:55.040Z,26.56
2023-03-28T06:35:55.051Z,26.55
2023-03-28T06:36:55.015Z,26.51
2023-03-28T06:37:55.005Z,26.49
2023-03-28T06:38:56.044Z,26.46
2023-03-28T06:39:54.974Z,26.51
2023-03-28T06:40:54.941Z,26.45
2023-03-28T06:41:54.942Z,26.44
2023-03-28T06:42:54.912Z,26.41
2023-03-28T06:43:54.899Z,26.42
2023-03-28T06:44:54.871Z,26.39
2023-03-28T06:45:54.908Z,26.37
2023-03-28T06:46:54.847Z,26.37
2023-03-28T06:47:54.870Z,26.38
2023-03-28T06:48:54.830Z,26.38
2023-03-28T06:49:54.803Z,26.35
2023-03-28T06:50:54.786Z,26.33
2023-03-28T06:51:54.769Z,26.31
2023-03-28T06:52:54.757Z,26.30
2023-03-28T06:53:54.730Z,26.30
2023-03-28T06:54:54.710Z,26.24
2023-03-28T06:55:54.679Z,26.30
2023-03-28T06:56:54.730Z,26.23
2023-03-28T06:57:54.646Z,26.21
2023-03-28T06:58:54.699Z,26.19
2023-03-28T06:59:54.775Z,26.20
2023-03-28T07:00:54.662Z,26.20
2023-03-28T07:01:54.718Z,26.23
2023-03-28T07:02:54.690Z,26.17
2023-03-28T07:03:54.786Z,26.08
2023-03-28T07:04:54.801Z,26.05
2023-03-28T07:05:54.578Z,26.04
2023-03-28T07:06:54.574Z,26.06
2023-03-28T07:07:54.593Z,25.97
2023-03-28T07:08:54.594Z,25.89
2023-03-28T07:09:54.641Z,25.92
2023-03-28T07:10:54.651Z,25.84
2023-03-28T07:11:54.672Z,25.81
2023-03-28T07:12:55.480Z,25.87
2023-03-28T07:13:55.408Z,25.78
2023-03-28T07:14:54.805Z,25.79
2023-03-28T07:15:54.861Z,25.77
2023-03-28T07:16:54.940Z,25.76
2023-03-28T07:17:54.957Z,26.92
2023-03-28T07:18:55.003Z,26.79
2023-03-28T07:19:55.048Z,27.28
2023-03-28T07:21:55.032Z,26.30
2023-03-28T07:22:55.032Z,23.63
2023-03-28T07:23:54.999Z,23.01
2023-03-28T07:24:55.484Z,22.51
2023-03-28T07:25:54.970Z,23.93
2023-03-28T07:27:11.770Z,24.77
2023-03-28T07:27:55.942Z,25.21
2023-03-28T07:28:54.939Z,25.69
2023-03-28T07:29:55.566Z,26.14
2023-03-28T07:30:54.928Z,26.20
2023-03-28T07:31:54.981Z,26.75
2023-03-28T07:33:06.424Z,26.88
2023-03-28T07:33:55.923Z,27.06
2023-03-28T07:34:54.853Z,27.49
2023-03-28T07:35:54.852Z,27.72
2023-03-28T07:36:54.804Z,28.06
2023-03-28T07:37:54.787Z,28.58
2023-03-28T07:38:54.765Z,28.57
2023-03-28T07:39:54.737Z,28.89
2023-03-28T07:40:55.488Z,29.08
2023-03-28T07:41:54.686Z,29.35
2023-03-28T07:42:54.664Z,29.37
2023-03-28T07:43:54.705Z,29.65
2023-03-28T07:44:55.498Z,29.86
2023-03-28T07:45:54.619Z,30.22
2023-03-28T07:46:54.601Z,30.48
2023-03-28T07:47:54.583Z,30.71
2023-03-28T07:48:54.503Z,30.75
2023-03-28T07:49:55.000Z,30.91
2023-03-28T07:50:54.445Z,31.11
2023-03-28T07:51:54.471Z,31.14
2023-03-28T07:52:54.531Z,31.52
2023-03-28T07:53:54.542Z,31.45
2023-03-28T07:54:54.576Z,31.64
2023-03-28T07:55:55.932Z,31.89
2023-03-28T07:56:55.532Z,31.99
2023-03-28T07:57:54.665Z,32.18
2023-03-28T07:58:54.695Z,32.30
2023-03-28T07:59:54.720Z,32.63
2023-03-28T08:00:54.755Z,32.78
2023-03-28T08:01:54.780Z,33.13
2023-03-28T08:02:54.853Z,33.21
2023-03-28T08:03:54.937Z,33.26
2023-03-28T08:04:54.855Z,33.43
2023-03-28T08:05:54.950Z,33.60
2023-03-28T08:06:54.918Z,33.77
2023-03-28T08:07:54.932Z,33.88
2023-03-28T08:08:54.954Z,33.97
2023-03-28T08:09:57.736Z,34.20
2023-03-28T08:10:54.943Z,34.65
2023-03-28T08:11:54.911Z,34.59
2023-03-28T08:12:54.888Z,34.41
2023-03-28T08:13:54.855Z,34.59
2023-03-28T08:14:54.818Z,34.45
2023-03-28T08:15:55.430Z,34.27
2023-03-28T08:16:54.755Z,34.22
2023-03-28T08:17:54.754Z,32.57
2023-03-28T08:19:09.164Z,32.25
2023-03-28T08:19:55.685Z,30.15
2023-03-28T08:20:54.645Z,27.35
2023-03-28T08:21:54.632Z,28.15
2023-03-28T08:22:55.432Z,28.31
2023-03-28T08:23:54.582Z,28.33
2023-03-28T08:24:54.556Z,28.86
2023-03-28T08:25:54.523Z,29.13
2023-03-28T08:26:54.528Z,27.81
2023-03-28T08:27:54.489Z,28.42
2023-03-28T08:28:54.488Z,28.80
2023-03-28T08:29:54.494Z,28.80
2023-03-28T08:30:55.463Z,28.94
2023-03-28T08:31:54.593Z,28.87
2023-03-28T08:32:54.660Z,28.80
2023-03-28T08:33:54.648Z,28.86
2023-03-28T08:34:55.024Z,28.90
2023-03-28T08:35:54.712Z,28.82
2023-03-28T08:36:54.683Z,28.93
2023-03-28T08:37:55.508Z,29.08
2023-03-28T08:38:54.679Z,29.05
2023-03-28T08:39:54.659Z,29.20
2023-03-28T08:40:54.665Z,29.34
2023-03-28T08:41:54.634Z,29.51
2023-03-28T08:42:54.700Z,29.64
2023-03-28T08:43:54.640Z,29.76
2023-03-28T08:44:54.644Z,30.03
2023-03-28T08:45:55.027Z,30.14
2023-03-28T08:46:54.732Z,30.31
2023-03-28T08:47:54.730Z,30.49
2023-03-28T08:48:55.024Z,30.66
2023-03-28T08:49:54.766Z,30.82
2023-03-28T08:50:54.804Z,31.00
2023-03-28T08:51:54.813Z,31.20
2023-03-28T08:52:54.834Z,31.30
2023-03-28T08:53:54.909Z,31.47
2023-03-28T08:54:54.891Z,31.54
2023-03-28T08:55:57.542Z,31.76
2023-03-28T08:56:55.189Z,31.86
2023-03-28T08:57:55.250Z,31.99
2023-03-28T08:58:55.196Z,32.15
2023-03-28T08:59:55.187Z,32.31
2023-03-28T09:00:55.243Z,32.46
2023-03-28T09:01:55.342Z,32.57
2023-03-28T09:02:55.390Z,32.63
2023-03-28T09:03:55.445Z,32.77
2023-03-28T09:05:02.050Z,32.91
2023-03-28T09:05:56.339Z,33.05
2023-03-28T09:06:55.338Z,33.11
2023-03-28T09:07:55.330Z,33.18
2023-03-28T09:08:55.281Z,33.38
2023-03-28T09:09:55.235Z,33.42
2023-03-28T09:10:55.193Z,33.52
2023-03-28T09:11:55.167Z,33.58
2023-03-28T09:12:55.125Z,33.55
2023-03-28T09:13:55.108Z,33.56
2023-03-28T09:14:55.129Z,33.55
2023-03-28T09:15:56.149Z,33.60
2023-03-28T09:16:55.232Z,33.54
2023-03-28T09:17:55.370Z,33.47
2023-03-28T09:18:55.235Z,33.40
2023-03-28T09:19:55.329Z,33.28
2023-03-28T09:20:55.319Z,32.66
2023-03-28T09:22:05.006Z,27.04
2023-03-28T09:22:56.315Z,25.18
2023-03-28T09:23:55.297Z,22.10
2023-03-28T09:24:55.341Z,20.99
2023-03-28T09:25:55.237Z,20.35
2023-03-28T09:26:55.213Z,19.34
2023-03-28T09:27:56.027Z,19.11
2023-03-28T09:28:55.196Z,18.29
2023-03-28T09:29:55.191Z,18.27
2023-03-28T09:30:55.180Z,17.83
2023-03-28T09:31:55.175Z,17.93
2023-03-28T09:32:55.233Z,17.55
2023-03-28T09:33:55.137Z,17.14
2023-03-28T09:34:55.126Z,16.95
2023-03-28T09:35:55.145Z,16.93
2023-03-28T09:36:55.496Z,16.64
2023-03-28T09:37:55.172Z,16.17
2023-03-28T09:38:55.226Z,16.34
2023-03-28T09:39:55.270Z,16.30
2023-03-28T09:40:55.416Z,16.37
2023-03-28T09:41:55.383Z,15.97
2023-03-28T09:42:55.419Z,15.95
2023-03-28T09:43:57.246Z,15.73
2023-03-28T09:44:55.544Z,16.01
2023-03-28T09:45:55.497Z,16.68
2023-03-28T09:46:55.430Z,16.93
2023-03-28T09:47:56.031Z,17.19
2023-03-28T09:48:55.465Z,17.15
2023-03-28T09:50:05.651Z,17.52
2023-03-28T09:50:56.512Z,17.70
2023-03-28T09:51:55.576Z,17.62
2023-03-28T09:52:55.625Z,17.60
2023-03-28T09:53:55.652Z,17.74
2023-03-28T09:54:55.691Z,17.78
2023-03-28T09:56:04.326Z,17.75
2023-03-28T09:56:56.797Z,17.78
2023-03-28T09:57:55.695Z,17.91
2023-03-28T09:58:55.654Z,17.65
2023-03-28T09:59:55.633Z,17.94
2023-03-28T10:00:55.639Z,17.94
2023-03-28T10:01:55.696Z,18.17
2023-03-28T10:02:55.571Z,18.25
2023-03-28T10:03:55.523Z,18.25
2023-03-28T10:04:55.600Z,18.37
2023-03-28T10:05:55.453Z,18.41
2023-03-28T10:06:55.423Z,18.27
2023-03-28T10:07:55.394Z,18.32
2023-03-28T10:08:55.352Z,18.06
2023-03-28T10:09:55.351Z,18.19
2023-03-28T10:10:55.315Z,18.04
2023-03-28T10:11:55.309Z,17.10
2023-03-28T10:12:55.268Z,17.75
2023-03-28T10:13:55.257Z,18.26
2023-03-28T10:14:55.241Z,18.53
2023-03-28T10:15:55.215Z,18.26
2023-03-28T10:16:55.193Z,18.23
2023-03-28T10:17:55.224Z,18.38
2023-03-28T10:18:55.157Z,18.50
2023-03-28T10:19:56.048Z,18.55
2023-03-28T10:20:55.213Z,18.58
2023-03-28T10:21:55.243Z,18.65
2023-03-28T10:22:55.270Z,18.85
2023-03-28T10:23:55.301Z,19.12
2023-03-28T10:24:55.348Z,18.88
2023-03-28T10:25:55.393Z,18.81
2023-03-28T10:26:55.397Z,18.78
2023-03-28T10:27:55.429Z,18.87
2023-03-28T10:28:55.467Z,18.93
2023-03-28T10:29:55.491Z,18.97
2023-03-28T10:30:55.589Z,19.00
2023-03-28T10:31:55.548Z,18.98
2023-03-28T10:32:55.598Z,18.97
2023-03-28T10:33:55.587Z,18.99
2023-03-28T10:34:55.613Z,18.99
2023-03-28T10:35:55.703Z,19.00
2023-03-28T10:36:55.733Z,19.02
2023-03-28T10:37:55.745Z,19.11
2023-03-28T10:38:55.730Z,19.09
2023-03-28T10:39:55.762Z,19.08
2023-03-28T10:40:55.839Z,19.07
2023-03-28T10:41:55.868Z,19.13
2023-03-28T10:42:55.835Z,19.17
2023-03-28T10:43:55.873Z,19.20
2023-03-28T10:44:55.907Z,19.13
2023-03-28T10:45:55.964Z,19.20
2023-03-28T10:46:55.982Z,19.16
2023-03-28T10:47:56.018Z,19.16
2023-03-28T10:48:56.022Z,19.23
2023-03-28T10:49:56.044Z,19.22
2023-03-28T10:50:56.078Z,19.28
2023-03-28T10:51:56.120Z,19.31
2023-03-28T10:52:56.153Z,19.26
2023-03-28T10:53:56.173Z,19.34
2023-03-28T10:54:56.194Z,19.34
2023-03-28T10:55:57.631Z,19.35
2023-03-28T10:56:56.271Z,19.42
2023-03-28T10:57:56.155Z,19.37
2023-03-28T10:58:56.148Z,19.45
2023-03-28T10:59:56.085Z,19.45
2023-03-28T11:00:56.043Z,19.43
2023-03-28T11:01:56.055Z,19.49
2023-03-28T11:02:56.049Z,19.50
2023-03-28T11:03:56.004Z,19.53
2023-03-28T11:04:55.916Z,19.61
2023-03-28T11:06:08.933Z,19.61
2023-03-28T11:06:56.921Z,19.55
2023-03-28T11:07:55.807Z,19.59
2023-03-28T11:08:55.771Z,19.65
2023-03-28T11:09:55.746Z,19.68
2023-03-28T11:10:55.721Z,19.65
2023-03-28T11:11:55.682Z,19.70
2023-03-28T11:12:57.244Z,19.73
2023-03-28T11:13:55.632Z,19.74
2023-03-28T11:14:55.681Z,19.74
2023-03-28T11:15:55.568Z,19.77
2023-03-28T11:16:55.587Z,19.82
2023-03-28T11:17:55.518Z,19.85
2023-03-28T11:18:55.472Z,19.85
2023-03-28T11:19:55.432Z,19.86
2023-03-28T11:20:55.407Z,19.88
2023-03-28T11:21:55.368Z,19.91
2023-03-28T11:23:04.629Z,19.89
2023-03-28T11:23:56.298Z,19.89
2023-03-28T11:24:55.329Z,19.94
2023-03-28T11:25:55.237Z,19.98
2023-03-28T11:27:02.205Z,19.96
2023-03-28T11:27:56.237Z,19.98
2023-03-28T11:28:55.122Z,20.07
2023-03-28T11:29:55.097Z,20.05
2023-03-28T11:30:55.055Z,20.07
2023-03-28T11:31:55.030Z,20.10
2023-03-28T11:32:55.184Z,20.07
2023-03-28T11:33:54.970Z,20.08
2023-03-28T11:34:54.944Z,20.11
2023-03-28T11:35:54.940Z,20.13
2023-03-28T11:36:55.003Z,20.16
2023-03-28T11:37:54.846Z,20.23
2023-03-28T11:38:54.825Z,20.19
2023-03-28T11:39:54.829Z,20.19
2023-03-28T11:40:54.824Z,20.28
2023-03-28T11:41:54.848Z,20.23
2023-03-28T11:42:54.833Z,20.49
2023-03-28T11:43:54.828Z,20.57
2023-03-28T11:44:54.804Z,20.49
2023-03-28T11:45:54.845Z,20.72
2023-03-28T11:46:54.919Z,21.03
2023-03-28T11:47:54.876Z,21.74
2023-03-28T11:48:54.716Z,22.75
2023-03-28T11:49:54.710Z,22.90
2023-03-28T11:50:54.703Z,22.69
2023-03-28T11:51:54.702Z,22.67
2023-03-28T11:52:54.707Z,22.78
2023-03-28T11:53:54.711Z,22.85
2023-03-28T11:54:55.090Z,23.00
2023-03-28T11:55:54.709Z,23.51
2023-03-28T11:56:54.786Z,24.28
2023-03-28T11:57:54.730Z,23.76
2023-03-28T11:58:54.763Z,23.73
2023-03-28T11:59:54.743Z,23.84
2023-03-28T12:00:54.825Z,23.95
2023-03-28T12:01:54.787Z,23.98
2023-03-28T12:02:54.816Z,24.11
2023-03-28T12:03:54.839Z,24.23
2023-03-28T12:04:54.778Z,24.29
2023-03-28T12:06:02.739Z,24.26
2023-03-28T12:07:02.371Z,24.37
2023-03-28T12:07:55.724Z,24.36
2023-03-28T12:08:54.702Z,24.43
2023-03-28T12:09:54.664Z,24.51
2023-03-28T12:10:54.638Z,24.52
2023-03-28T12:11:54.614Z,24.52
2023-03-28T12:12:54.586Z,24.46
2023-03-28T12:14:08.903Z,24.46
2023-03-28T12:14:55.573Z,24.46
2023-03-28T12:15:54.577Z,24.46
2023-03-28T12:16:55.224Z,24.48
2023-03-28T12:17:54.620Z,24.45
2023-03-28T12:18:54.604Z,24.40
2023-03-28T12:19:54.660Z,24.31
2023-03-28T12:20:54.632Z,24.34
2023-03-28T12:21:54.640Z,24.35
2023-03-28T12:22:54.651Z,24.35
2023-03-28T12:23:54.681Z,24.28
2023-03-28T12:24:54.688Z,24.30
2023-03-28T12:25:54.733Z,24.20
2023-03-28T12:26:56.127Z,24.28
2023-03-28T12:27:54.737Z,24.27
2023-03-28T12:28:54.734Z,24.28
2023-03-28T12:29:54.748Z,24.24
2023-03-28T12:30:54.779Z,24.18
2023-03-28T12:31:54.771Z,24.24
2023-03-28T12:32:54.798Z,24.18
2023-03-28T12:33:54.865Z,24.14
2023-03-28T12:34:54.805Z,24.14
2023-03-28T12:35:54.867Z,24.11
2023-03-28T12:36:54.842Z,24.07
2023-03-28T12:37:54.863Z,24.07
2023-03-28T12:38:55.730Z,24.05
2023-03-28T12:39:55.079Z,24.01
2023-03-28T12:40:54.968Z,24.04
2023-03-28T12:41:54.936Z,24.05
2023-03-28T12:42:54.964Z,24.02
2023-03-28T12:43:54.980Z,24.02
2023-03-28T12:44:54.992Z,23.99
2023-03-28T12:45:55.035Z,24.02
2023-03-28T12:46:55.041Z,23.97
2023-03-28T12:47:55.121Z,23.98
2023-03-28T12:48:55.090Z,23.99
2023-03-28T12:49:55.170Z,23.92
2023-03-28T12:50:55.126Z,23.94
2023-03-28T12:51:56.123Z,23.91
2023-03-28T12:52:55.176Z,23.94
2023-03-28T12:53:55.197Z,23.89